createdAt,value
2019-02-01T00:03:20.333Z,4.37
2019-02-01T00:05:48.236Z,4.90
2019-02-01T00:08:15.894Z,3.87
2019-02-01T00:10:43.869Z,4.37
2019-02-01T00:13:11.823Z,4.00
2019-02-01T00:15:40.209Z,3.90
2019-02-01T00:18:08.538Z,3.87
2019-02-01T00:20:36.709Z,3.57
2019-02-01T00:23:04.823Z,4.20
2019-02-01T00:25:33.166Z,3.90
2019-02-01T00:28:01.354Z,3.93
2019-02-01T00:30:30.019Z,3.83
2019-02-01T00:32:58.383Z,3.50
2019-02-01T00:35:26.637Z,3.90
2019-02-01T00:37:55.155Z,3.53
2019-02-01T00:40:23.168Z,4.03
2019-02-01T00:42:51.100Z,3.90
2019-02-01T00:45:18.743Z,3.47
2019-02-01T00:50:41.420Z,4.03
2019-02-01T00:53:09.350Z,3.70
2019-02-01T00:55:37.672Z,3.80
2019-02-01T00:58:05.729Z,3.10
2019-02-01T01:00:34.063Z,4.10
2019-02-01T01:03:01.729Z,4.07
2019-02-01T01:05:30.014Z,3.63
2019-02-01T01:07:58.645Z,3.53
2019-02-01T01:13:33.949Z,3.67
2019-02-01T01:16:02.238Z,3.67
2019-02-01T01:18:30.453Z,3.77
2019-02-01T01:20:58.094Z,3.30
2019-02-01T01:23:26.117Z,4.00
2019-02-01T01:28:41.680Z,3.70
2019-02-01T01:31:09.395Z,3.27
2019-02-01T01:33:37.420Z,3.93
2019-02-01T01:36:05.061Z,3.40
2019-02-01T01:38:32.968Z,4.10
2019-02-01T01:41:00.905Z,3.40
2019-02-01T01:43:28.560Z,3.90
2019-02-01T01:45:56.457Z,3.57
2019-02-01T01:48:34.664Z,3.70
2019-02-01T01:50:54.905Z,3.97
2019-02-01T01:53:23.121Z,3.50
2019-02-01T01:56:10.112Z,4.00
2019-02-01T01:58:37.770Z,3.90
2019-02-01T02:01:05.690Z,3.90
2019-02-01T02:03:34.081Z,4.20
2019-02-01T02:06:02.246Z,4.10
2019-02-01T02:08:29.977Z,4.07
2019-02-01T02:10:58.369Z,4.40
2019-02-01T02:13:26.028Z,4.10
2019-02-01T02:15:53.935Z,3.57
2019-02-01T02:18:21.853Z,4.27
2019-02-01T02:20:49.500Z,4.67
2019-02-01T02:23:17.164Z,4.67
2019-02-01T02:25:45.582Z,5.13
2019-02-01T02:28:13.265Z,4.63
2019-02-01T02:30:40.910Z,4.57
2019-02-01T02:33:08.853Z,4.50
2019-02-01T02:35:36.515Z,4.30
2019-02-01T02:38:04.458Z,4.27
2019-02-01T02:40:32.397Z,4.63
2019-02-01T02:43:00.044Z,4.40
2019-02-01T02:45:28.081Z,4.07
2019-02-01T02:47:55.964Z,4.60
2019-02-01T02:50:24.050Z,4.50
2019-02-01T02:52:52.701Z,4.30
2019-02-01T02:55:20.648Z,3.90
2019-02-01T03:00:35.828Z,5.00
2019-02-01T03:06:11.555Z,5.23
2019-02-01T03:08:39.560Z,4.50
2019-02-01T03:11:07.481Z,4.50
2019-02-01T03:13:35.537Z,4.80
2019-02-01T03:18:58.312Z,4.70
2019-02-01T03:21:27.019Z,4.40
2019-02-01T03:26:42.765Z,4.93
2019-02-01T03:31:58.202Z,4.70
2019-02-01T03:34:26.473Z,4.90
2019-02-01T03:36:54.384Z,4.87
2019-02-01T03:39:22.637Z,4.47
2019-02-01T03:41:50.817Z,5.00
2019-02-01T03:44:19.072Z,4.60
2019-02-01T03:46:46.704Z,5.03
2019-02-01T03:49:25.496Z,4.70
2019-02-01T03:51:44.275Z,4.53
2019-02-01T03:54:12.569Z,5.10
2019-02-01T03:56:40.862Z,4.80
2019-02-01T03:59:08.896Z,4.97
2019-02-01T04:04:23.698Z,4.97
2019-02-01T04:06:51.341Z,4.77
2019-02-01T04:09:19.311Z,4.70
2019-02-01T04:11:47.726Z,4.53
2019-02-01T04:14:15.718Z,5.10
2019-02-01T04:16:43.619Z,4.87
2019-02-01T04:19:11.934Z,5.00
2019-02-01T04:21:39.871Z,5.17
2019-02-01T04:24:26.915Z,4.87
2019-02-01T04:26:54.921Z,4.60
2019-02-01T04:29:41.689Z,5.60
2019-02-01T04:32:09.721Z,5.20
2019-02-01T04:34:37.736Z,5.33
2019-02-01T04:37:05.718Z,5.60
2019-02-01T04:39:34.406Z,4.87
2019-02-01T04:42:02.363Z,4.57
2019-02-01T04:44:30.402Z,4.93
2019-02-01T04:46:58.040Z,4.90
2019-02-01T04:49:25.937Z,5.53
2019-02-01T04:51:54.215Z,5.50
2019-02-01T04:54:22.495Z,5.00
2019-02-01T04:56:50.333Z,5.50
2019-02-01T04:59:17.983Z,5.47
2019-02-01T05:01:46.360Z,5.27
2019-02-01T05:04:14.765Z,5.77
2019-02-01T05:06:42.440Z,5.80
2019-02-01T05:09:10.357Z,5.47
2019-02-01T05:11:38.710Z,5.57
2019-02-01T05:14:06.361Z,5.13
2019-02-01T05:16:34.553Z,4.93
2019-02-01T05:19:02.257Z,5.80
2019-02-01T05:21:30.565Z,5.50
2019-02-01T05:23:58.920Z,5.37
2019-02-01T05:26:26.594Z,5.53
2019-02-01T05:28:55.105Z,5.93
2019-02-01T05:31:23.638Z,5.27
2019-02-01T05:33:51.615Z,5.47
2019-02-01T05:36:19.603Z,5.90
2019-02-01T05:38:47.925Z,5.63
2019-02-01T05:41:16.284Z,5.47
2019-02-01T05:43:44.864Z,5.00
2019-02-01T05:46:13.153Z,5.33
2019-02-01T05:48:41.051Z,5.43
2019-02-01T05:51:08.966Z,5.47
2019-02-01T05:53:36.608Z,5.63
2019-02-01T05:56:04.526Z,5.13
2019-02-01T05:58:32.440Z,5.20
2019-02-01T06:01:00.480Z,5.20
2019-02-01T06:03:28.445Z,4.67
2019-02-01T06:05:56.785Z,4.87
2019-02-01T06:08:24.844Z,5.50
2019-02-01T06:10:52.739Z,5.33
2019-02-01T06:13:21.123Z,5.77
2019-02-01T06:15:48.801Z,5.27
2019-02-01T06:18:16.553Z,5.03
2019-02-01T06:20:44.215Z,4.90
2019-02-01T06:23:11.866Z,5.00
2019-02-01T06:25:39.905Z,5.17
2019-02-01T06:28:07.880Z,4.73
2019-02-01T06:30:36.101Z,5.37
2019-02-01T06:33:03.858Z,5.13
2019-02-01T06:35:31.941Z,5.80
2019-02-01T06:37:59.953Z,6.10
2019-02-01T06:40:28.906Z,5.43
2019-02-01T06:42:57.160Z,5.10
2019-02-01T06:45:25.537Z,5.70
2019-02-01T06:47:53.814Z,5.83
2019-02-01T06:50:51.489Z,5.77
2019-02-01T06:53:09.345Z,5.60
2019-02-01T06:55:37.326Z,5.10
2019-02-01T06:58:06.068Z,5.40
2019-02-01T07:00:37.410Z,5.90
2019-02-01T07:03:11.561Z,6.20
2019-02-01T07:05:39.603Z,5.93
2019-02-01T07:08:17.100Z,5.50
2019-02-01T07:11:13.325Z,5.53
2019-02-01T07:13:59.362Z,5.40
2019-02-01T07:16:36.150Z,6.13
2019-02-01T07:19:20.480Z,5.43
2019-02-01T07:22:10.037Z,5.40
2019-02-01T07:24:58.723Z,5.30
2019-02-01T07:27:32.072Z,5.50
2019-02-01T07:30:14.272Z,5.73
2019-02-01T07:32:49.558Z,5.87
2019-02-01T07:35:17.485Z,5.50
2019-02-01T07:37:45.221Z,5.77
2019-02-01T07:40:13.284Z,6.37
2019-02-01T07:42:41.265Z,6.43
2019-02-01T07:45:11.299Z,5.67
2019-02-01T07:47:46.404Z,6.00
2019-02-01T07:50:23.366Z,6.40
2019-02-01T07:52:45.570Z,5.70
2019-02-01T07:55:13.213Z,6.03
2019-02-01T07:57:41.155Z,5.90
2019-02-01T08:00:10.916Z,5.97
2019-02-01T08:02:38.860Z,5.90
2019-02-01T08:05:07.125Z,5.97
2019-02-01T08:07:34.789Z,5.87
2019-02-01T08:10:03.185Z,6.30
2019-02-01T08:12:31.808Z,5.83
2019-02-01T08:15:00.041Z,5.83
2019-02-01T08:17:28.118Z,5.60
2019-02-01T08:19:56.125Z,5.57
2019-02-01T08:22:24.160Z,5.73
2019-02-01T08:24:52.165Z,6.30
2019-02-01T08:27:20.455Z,6.00
2019-02-01T08:29:48.884Z,5.33
2019-02-01T08:32:16.931Z,5.60
2019-02-01T08:34:44.969Z,5.77
2019-02-01T08:37:13.150Z,5.40
2019-02-01T08:39:41.381Z,5.57
2019-02-01T08:42:09.289Z,4.97
2019-02-01T08:44:37.522Z,5.37
2019-02-01T08:47:05.529Z,5.57
2019-02-01T08:49:33.671Z,6.07
2019-02-01T08:52:02.146Z,5.73
2019-02-01T08:54:32.264Z,5.63
2019-02-01T08:57:00.292Z,4.93
2019-02-01T08:59:28.238Z,5.17
2019-02-01T09:01:56.578Z,5.83
2019-02-01T09:04:24.876Z,5.40
2019-02-01T09:06:52.782Z,4.77
2019-02-01T09:09:27.584Z,5.80
2019-02-01T09:11:55.501Z,5.40
2019-02-01T09:14:23.782Z,5.50
2019-02-01T09:16:52.850Z,5.20
2019-02-01T09:19:20.677Z,5.03
2019-02-01T09:21:50.391Z,5.60
2019-02-01T09:24:18.682Z,5.33
2019-02-01T09:26:47.003Z,5.03
2019-02-01T09:29:14.658Z,6.20
2019-02-01T09:31:44.039Z,5.77
2019-02-01T09:34:12.011Z,5.10
2019-02-01T09:36:40.880Z,5.33
2019-02-01T09:39:09.231Z,5.00
2019-02-01T09:41:37.296Z,5.83
2019-02-01T09:44:05.321Z,5.47
2019-02-01T09:46:33.676Z,5.13
2019-02-01T09:49:02.229Z,4.90
2019-02-01T09:51:30.824Z,4.60
2019-02-01T09:54:01.157Z,5.30
2019-02-01T09:56:29.486Z,5.20
2019-02-01T09:58:57.697Z,4.90
2019-02-01T10:01:25.993Z,4.93
2019-02-01T10:03:53.673Z,4.77
2019-02-01T10:06:21.974Z,5.00
2019-02-01T10:08:49.646Z,4.77
2019-02-01T10:11:17.402Z,4.70
2019-02-01T10:13:45.517Z,4.70
2019-02-01T10:16:13.500Z,4.40
2019-02-01T10:18:41.354Z,4.60
2019-02-01T10:21:09.380Z,4.53
2019-02-01T10:23:37.108Z,4.70
2019-02-01T10:26:07.870Z,4.27
2019-02-01T10:28:35.237Z,4.47
2019-02-01T10:31:02.901Z,4.33
2019-02-01T10:33:30.817Z,4.43
2019-02-01T10:35:58.830Z,4.60
2019-02-01T10:38:26.749Z,4.47
2019-02-01T10:40:54.403Z,4.30
2019-02-01T10:43:22.074Z,4.40
2019-02-01T10:45:50.351Z,4.67
2019-02-01T10:48:18.411Z,4.60
2019-02-01T10:50:46.484Z,4.30
2019-02-01T10:53:14.794Z,4.70
2019-02-01T10:55:43.050Z,4.47
2019-02-01T10:58:11.469Z,4.77
2019-02-01T11:00:39.589Z,4.20
2019-02-01T11:03:07.769Z,4.00
2019-02-01T11:05:39.657Z,4.53
2019-02-01T11:08:07.293Z,4.00
2019-02-01T11:10:35.373Z,4.13
2019-02-01T11:13:03.724Z,4.33
2019-02-01T11:15:31.985Z,4.40
2019-02-01T11:18:00.148Z,4.27
2019-02-01T11:20:28.150Z,3.43
2019-02-01T11:22:56.163Z,3.90
2019-02-01T11:25:24.149Z,4.20
2019-02-01T11:27:52.478Z,4.17
2019-02-01T11:30:21.541Z,3.80
2019-02-01T11:32:49.409Z,4.23
2019-02-01T11:35:17.436Z,3.83
2019-02-01T11:37:46.085Z,3.97
2019-02-01T11:40:14.749Z,4.20
2019-02-01T11:42:42.955Z,4.07
2019-02-01T11:45:10.980Z,4.70
2019-02-01T11:47:39.798Z,4.00
2019-02-01T11:50:09.749Z,4.20
2019-02-01T11:52:47.704Z,4.40
2019-02-01T11:55:10.282Z,4.20
2019-02-01T11:57:38.608Z,3.87
2019-02-01T12:00:07.153Z,3.97
2019-02-01T12:02:43.960Z,3.80
2019-02-01T12:05:05.736Z,4.13
2019-02-01T12:07:42.801Z,3.97
2019-02-01T12:10:03.570Z,3.53
2019-02-01T12:12:31.277Z,4.60
2019-02-01T12:14:59.189Z,4.70
2019-02-01T12:17:27.417Z,4.77
2019-02-01T12:19:55.720Z,5.10
2019-02-01T12:22:23.719Z,4.40
2019-02-01T12:24:51.373Z,4.30
2019-02-01T12:27:19.714Z,4.90
2019-02-01T12:29:47.644Z,4.80
2019-02-01T12:32:15.645Z,5.20
2019-02-01T12:34:43.657Z,6.97
2019-02-01T12:37:12.197Z,5.20
2019-02-01T12:39:40.166Z,4.30
2019-02-01T12:42:07.828Z,4.70
2019-02-01T12:44:36.176Z,11.27
2019-02-01T12:47:04.156Z,5.27
2019-02-01T12:49:32.100Z,4.87
2019-02-01T12:51:59.757Z,4.90
2019-02-01T12:54:27.774Z,4.37
2019-02-01T12:56:56.478Z,4.80
2019-02-01T12:59:24.477Z,4.40
2019-02-01T13:01:52.130Z,4.80
2019-02-01T13:04:20.142Z,4.10
2019-02-01T13:06:48.436Z,4.90
2019-02-01T13:09:16.622Z,5.07
2019-02-01T13:11:44.993Z,4.70
2019-02-01T13:14:20.214Z,4.57
2019-02-01T13:16:48.522Z,4.23
2019-02-01T13:19:16.831Z,5.13
2019-02-01T13:21:44.580Z,4.80
2019-02-01T13:24:12.552Z,4.13
2019-02-01T13:26:41.223Z,4.40
2019-02-01T13:29:09.508Z,4.13
2019-02-01T13:31:37.198Z,4.60
2019-02-01T13:34:05.338Z,5.17
2019-02-01T13:36:33.288Z,4.60
2019-02-01T13:39:01.312Z,4.70
2019-02-01T13:41:29.038Z,4.30
2019-02-01T13:43:57.118Z,4.60
2019-02-01T13:46:25.048Z,4.70
2019-02-01T13:48:52.945Z,4.70
2019-02-01T13:51:20.636Z,5.00
2019-02-01T13:53:48.955Z,4.73
2019-02-01T13:56:17.005Z,4.73
2019-02-01T13:58:44.984Z,4.87
2019-02-01T14:01:12.621Z,4.93
2019-02-01T14:03:40.956Z,5.20
2019-02-01T14:06:08.953Z,4.43
2019-02-01T14:08:37.169Z,4.23
2019-02-01T14:11:05.203Z,4.83
2019-02-01T14:13:33.765Z,4.47
2019-02-01T14:16:02.267Z,4.50
2019-02-01T14:18:30.350Z,4.43
2019-02-01T14:20:58.010Z,4.40
2019-02-01T14:23:27.678Z,4.77
2019-02-01T14:25:57.786Z,4.87
2019-02-01T14:28:25.542Z,4.77
2019-02-01T14:30:53.202Z,4.50
2019-02-01T14:33:22.640Z,5.20
2019-02-01T14:35:50.798Z,4.73
2019-02-01T14:38:18.827Z,6.47
2019-02-01T14:40:47.151Z,5.30
2019-02-01T14:43:15.573Z,4.83
2019-02-01T14:45:44.117Z,4.30
2019-02-01T14:48:11.782Z,5.57
2019-02-01T14:50:39.961Z,4.40
2019-02-01T14:53:07.681Z,4.77
2019-02-01T14:55:35.996Z,4.40
2019-02-01T14:58:04.225Z,4.17
2019-02-01T15:00:32.529Z,4.20
2019-02-01T15:03:00.538Z,4.10
2019-02-01T15:05:28.859Z,4.20
2019-02-01T15:07:57.274Z,4.30
2019-02-01T15:10:25.316Z,4.30
2019-02-01T15:12:53.248Z,4.07
2019-02-01T15:15:21.775Z,3.90
2019-02-01T15:17:49.852Z,4.07
2019-02-01T15:20:19.776Z,3.90
2019-02-01T15:22:47.506Z,4.30
2019-02-01T15:25:15.473Z,4.43
2019-02-01T15:27:43.566Z,4.10
2019-02-01T15:30:13.549Z,3.90
2019-02-01T15:32:41.506Z,4.03
2019-02-01T15:35:09.633Z,4.90
2019-02-01T15:37:37.309Z,4.10
2019-02-01T15:40:06.093Z,3.90
2019-02-01T15:42:34.372Z,3.83
2019-02-01T15:45:02.510Z,4.40
2019-02-01T15:47:30.489Z,3.93
2019-02-01T15:49:58.494Z,4.00
2019-02-01T15:52:26.516Z,4.20
2019-02-01T15:54:54.204Z,4.03
2019-02-01T15:57:22.220Z,3.90
2019-02-01T15:59:50.192Z,3.63
2019-02-01T16:02:18.013Z,4.13
2019-02-01T16:04:46.256Z,3.90
2019-02-01T16:07:14.908Z,3.90
2019-02-01T16:09:48.621Z,4.13
2019-02-01T16:12:12.653Z,3.70
2019-02-01T16:14:40.570Z,4.00
2019-02-01T16:17:08.831Z,4.03
2019-02-01T16:19:37.189Z,4.20
2019-02-01T16:22:05.627Z,4.23
2019-02-01T16:24:33.525Z,4.10
2019-02-01T16:27:02.039Z,4.07
2019-02-01T16:29:30.286Z,5.27
2019-02-01T16:31:58.341Z,4.53
2019-02-01T16:34:26.269Z,4.60
2019-02-01T16:36:54.552Z,4.00
2019-02-01T16:39:22.561Z,3.87
2019-02-01T16:41:50.912Z,4.07
2019-02-01T16:44:19.133Z,3.97
2019-02-01T16:46:47.212Z,4.90
2019-02-01T16:49:15.673Z,5.30
2019-02-01T16:51:43.641Z,4.50
2019-02-01T16:54:11.579Z,4.40
2019-02-01T16:56:39.233Z,4.70
2019-02-01T16:59:09.686Z,3.63
2019-02-01T17:01:36.686Z,4.10
2019-02-01T17:04:04.922Z,4.37
2019-02-01T17:06:32.941Z,4.80
2019-02-01T17:09:01.197Z,4.60
2019-02-01T17:11:29.398Z,4.60
2019-02-01T17:13:57.509Z,5.07
2019-02-01T17:16:25.432Z,5.10
2019-02-01T17:18:53.402Z,4.40
2019-02-01T17:21:21.065Z,4.63
2019-02-01T17:23:49.032Z,4.10
2019-02-01T17:26:17.265Z,4.00
2019-02-01T17:28:45.190Z,4.03
2019-02-01T17:31:12.844Z,4.20
2019-02-01T17:33:41.003Z,3.70
2019-02-01T17:36:08.929Z,4.53
2019-02-01T17:38:37.345Z,16.37
2019-02-01T17:41:05.077Z,11.20
2019-02-01T17:43:33.149Z,13.40
2019-02-01T17:46:01.227Z,9.80
2019-02-01T17:48:28.971Z,6.87
2019-02-01T17:50:57.673Z,5.33
2019-02-01T17:53:25.445Z,16.63
2019-02-01T17:55:53.380Z,7.40
2019-02-01T17:58:21.076Z,5.60
2019-02-01T18:01:15.553Z,7.07
2019-02-01T18:03:43.337Z,26.43
2019-02-01T18:06:11.805Z,16.20
2019-02-01T18:08:39.881Z,14.00
2019-02-01T18:11:07.849Z,9.40
2019-02-01T18:13:36.260Z,10.23
2019-02-01T18:16:04.202Z,15.80
2019-02-01T18:18:32.298Z,23.33
2019-02-01T18:21:00.332Z,12.70
2019-02-01T18:23:28.738Z,6.40
2019-02-01T18:25:57.098Z,5.70
2019-02-01T18:28:25.100Z,5.50
2019-02-01T18:30:52.832Z,6.73
2019-02-01T18:33:21.113Z,5.90
2019-02-01T18:35:48.874Z,5.23
2019-02-01T18:38:20.259Z,5.00
2019-02-01T18:40:46.795Z,5.40
2019-02-01T18:43:15.341Z,5.23
2019-02-01T18:45:43.005Z,4.30
2019-02-01T18:48:11.173Z,4.80
2019-02-01T18:50:39.183Z,4.50
2019-02-01T18:53:07.089Z,5.20
2019-02-01T18:55:34.787Z,4.73
2019-02-01T18:58:03.083Z,5.80
2019-02-01T19:00:31.665Z,6.00
2019-02-01T19:03:00.112Z,7.40
2019-02-01T19:05:28.521Z,8.50
2019-02-01T19:07:56.650Z,7.00
2019-02-01T19:10:25.081Z,6.43
2019-02-01T19:12:53.321Z,6.10
2019-02-01T19:15:22.433Z,6.87
2019-02-01T19:17:50.376Z,6.57
2019-02-01T19:20:19.081Z,7.53
2019-02-01T19:22:47.040Z,7.63
2019-02-01T19:25:15.569Z,6.70
2019-02-01T19:27:43.806Z,7.10
2019-02-01T19:30:13.817Z,9.10
2019-02-01T19:32:42.108Z,9.70
2019-02-01T19:35:10.594Z,10.57
2019-02-01T19:37:38.357Z,8.87
2019-02-01T19:40:07.532Z,7.90
2019-02-01T19:42:35.853Z,10.20
2019-02-01T19:45:04.306Z,9.37
2019-02-01T19:47:32.033Z,10.70
2019-02-01T19:50:00.333Z,10.40
2019-02-01T19:52:28.013Z,9.93
2019-02-01T19:54:55.697Z,11.23
2019-02-01T19:57:23.514Z,12.03
2019-02-01T19:59:51.366Z,10.90
2019-02-01T20:02:19.918Z,12.70
2019-02-01T20:04:48.562Z,13.20
2019-02-01T20:07:17.154Z,11.90
2019-02-01T20:09:45.186Z,10.93
2019-02-01T20:12:13.724Z,10.47
2019-02-01T20:14:41.746Z,9.30
2019-02-01T20:17:10.062Z,8.83
2019-02-01T20:19:38.017Z,8.60
2019-02-01T20:22:06.298Z,9.17
2019-02-01T20:24:34.721Z,9.00
2019-02-01T20:27:02.769Z,8.33
2019-02-01T20:29:30.520Z,10.27
2019-02-01T20:31:58.867Z,9.17
2019-02-01T20:34:46.837Z,7.77
2019-02-01T20:37:15.072Z,10.10
2019-02-01T20:39:43.128Z,10.70
2019-02-01T20:42:11.061Z,8.00
2019-02-01T20:44:39.104Z,7.40
2019-02-01T20:47:07.319Z,8.83
2019-02-01T20:49:35.418Z,7.00
2019-02-01T20:52:03.106Z,8.10
2019-02-01T20:54:31.069Z,8.90
2019-02-01T20:57:00.486Z,8.10
2019-02-01T20:59:28.235Z,8.10
2019-02-01T21:01:57.661Z,7.80
2019-02-01T21:04:25.641Z,8.57
2019-02-01T21:06:53.646Z,7.63
2019-02-01T21:09:21.894Z,10.00
2019-02-01T21:11:49.608Z,10.83
2019-02-01T21:14:17.588Z,11.40
2019-02-01T21:16:45.705Z,7.07
2019-02-01T21:19:13.953Z,7.70
2019-02-01T21:21:41.925Z,7.23
2019-02-01T21:24:10.298Z,7.10
2019-02-01T21:26:38.293Z,7.20
2019-02-01T21:29:06.270Z,7.10
2019-02-01T21:31:34.235Z,7.40
2019-02-01T21:34:01.913Z,7.10
2019-02-01T21:36:30.486Z,7.20
2019-02-01T21:38:58.836Z,7.10
2019-02-01T21:41:27.155Z,7.63
2019-02-01T21:43:55.521Z,7.70
2019-02-01T21:46:23.446Z,7.57
2019-02-01T21:48:52.965Z,7.10
2019-02-01T21:51:21.137Z,7.50
2019-02-01T21:53:49.185Z,7.33
2019-02-01T21:56:17.234Z,7.93
2019-02-01T21:58:44.960Z,7.43
2019-02-01T22:01:12.918Z,8.10
2019-02-01T22:03:40.936Z,7.50
2019-02-01T22:06:08.922Z,8.13
2019-02-01T22:08:36.594Z,8.97
2019-02-01T22:11:04.586Z,10.00
2019-02-01T22:13:32.409Z,11.40
2019-02-01T22:16:00.063Z,8.53
2019-02-01T22:18:27.993Z,8.10
2019-02-01T22:20:58.619Z,7.90
2019-02-01T22:23:26.540Z,7.80
2019-02-01T22:25:54.281Z,7.67
2019-02-01T22:28:22.285Z,8.03
2019-02-01T22:30:49.933Z,7.30
2019-02-01T22:33:17.605Z,7.00
2019-02-01T22:35:45.293Z,7.23
2019-02-01T22:38:14.205Z,7.00
2019-02-01T22:40:42.664Z,6.50
2019-02-01T22:43:10.612Z,7.67
2019-02-01T22:45:38.337Z,7.23
2019-02-01T22:48:06.218Z,7.33
2019-02-01T22:50:33.934Z,17.50
2019-02-01T22:53:01.866Z,10.10
2019-02-01T22:55:30.249Z,14.27
2019-02-01T22:57:57.910Z,13.93
2019-02-01T23:00:52.373Z,23.60
2019-02-01T23:03:20.431Z,18.60
2019-02-01T23:05:48.376Z,12.17
2019-02-01T23:08:16.501Z,10.40
2019-02-01T23:10:44.215Z,8.63
2019-02-01T23:13:11.937Z,8.47
2019-02-01T23:15:40.166Z,7.60
2019-02-01T23:18:08.173Z,8.57
2019-02-01T23:20:36.138Z,47.97
2019-02-01T23:23:04.443Z,13.73
2019-02-01T23:25:32.129Z,30.03
2019-02-01T23:28:00.309Z,18.10
2019-02-01T23:30:28.814Z,22.60
2019-02-01T23:32:57.125Z,17.00
2019-02-01T23:35:25.084Z,12.30
2019-02-01T23:37:52.743Z,9.73
2019-02-01T23:40:21.051Z,8.93
2019-02-01T23:42:49.257Z,11.70
2019-02-01T23:45:17.199Z,11.40
2019-02-01T23:47:45.190Z,11.63
2019-02-01T23:50:12.873Z,11.03
2019-02-01T23:52:40.689Z,12.07
2019-02-01T23:55:09.261Z,11.27
2019-02-01T23:57:37.596Z,11.30
